gordon.dewis.ca - Random musings from Gordon

Subscribe

Hmm…

October 27, 2008 @ 22:12 By: gordon Category: Weather

TAF CYOW 272338Z 280024 VRB03KT P6SM FEW040 BKN200
FM0800Z 34008KT P6SM -RA BKN025 OVC100 TEMPO 0814 6SM -RA BKN012
OVC025
FM1400Z 34012G22KT P6SM -RA BKN012 OVC025 TEMPO 1420 4SM -RA BR
BKN008 OVC020
FM2000Z 33015G25KT 3SM -RASN OVC012 TEMPO 2022 1/2SM SN VV005
FM2200Z 32015G25KT 1/4SM +SN VV003
RMK NXT FCST BY 03Z=

 

So, it looks like the snow is going to start around 16:00 localtime and then be in full blizzard mode by about 18:00 tomorrow.  Well, maybe not an official blizzard per Environment Canada’s definition (four or more hours of snow or blowing snow with winds of 40 km/hr or more, visibility reduced to less than one km. in snow and/or blowing snow, and a windchill of -25 or colder) but definitely lots of snow and wind.

Leave a Reply

*